Time;durP1;ratioP1;P1;durP2;ratioP2;P2;SDS_P1;SDS_P2;PMS_P1;PMS_P2;Temp;Humidity;BMP_temperature;BMP_pressure;BME280_temperature;BME280_humidity;BME280_pressure;Samples;Min_cycle;Max_cycle;Signal;HPM_P1;HPM_P2
2021/06/10 00:01:33;;;;;;;;;;;16.70;72.30;;;;;;5932618;40;20226;-80
2021/06/10 00:05:35;;;;;;;8.45;7.25;;;16.70;68.20;;;;;;5935324;40;19949;-80
2021/06/10 00:09:37;;;;;;;;;;;16.60;71.70;;;;;;5919412;40;20065;-82
2021/06/10 00:13:39;;;;;;;9.47;8.13;;;16.70;68.00;;;;;;5922066;40;19928;-78
2021/06/10 00:17:41;;;;;;;9.55;7.70;;;16.60;71.80;;;;;;5926293;40;21126;-79
2021/06/10 00:21:44;;;;;;;10.43;7.80;;;16.60;72.40;;;;;;5927027;40;20049;-79
2021/06/10 00:25:46;;;;;;;10.30;7.88;;;16.80;73.00;;;;;;5936986;40;20103;-80
2021/06/10 00:29:48;;;;;;;;;;;16.60;73.00;;;;;;5919144;40;20048;-79
2021/06/10 00:33:50;;;;;;;10.10;8.05;;;16.40;70.00;;;;;;5935074;40;20003;-79
2021/06/10 00:37:58;;;;;;;9.73;8.20;;;16.50;72.40;;;;;;5920137;40;20038;-78
2021/06/10 00:42:00;;;;;;;9.90;8.13;;;16.40;72.90;;;;;;5922282;40;20052;-78
2021/06/10 00:46:02;;;;;;;10.88;8.20;;;16.70;73.60;;;;;;5922399;40;20053;-80
2021/06/10 00:50:04;;;;;;;;;;;17.10;73.80;;;;;;5919701;40;20096;-81
2021/06/10 00:54:07;;;;;;;9.68;7.47;;;16.50;70.20;;;;;;5920053;40;20311;-78
2021/06/10 00:58:09;;;;;;;11.77;8.48;;;17.70;73.50;;;;;;5938643;40;20113;-79
2021/06/10 01:02:11;;;;;;;10.50;8.02;;;16.40;73.80;;;;;;5920890;40;20058;-79
2021/06/10 01:06:23;;;;;;;;;;;17.30;74.60;;;;;;5928308;40;20078;-81
2021/06/10 01:10:38;;;;;;;12.23;8.33;;;16.30;70.00;;;;;;5918385;40;19928;-80
2021/06/10 01:14:45;;;;;;;9.73;8.07;;;16.30;73.50;;;;;;5920010;40;20045;-81
2021/06/10 01:18:48;;;;;;;10.27;8.20;;;16.30;74.30;;;;;;5921276;40;20053;-81
2021/06/10 01:23:04;;;;;;;9.80;6.68;;;16.00;74.30;;;;;;5911084;40;20056;-80
2021/06/10 01:27:30;;;;;;;13.80;8.45;;;16.30;74.40;;;;;;5935632;40;20038;-81
2021/06/10 01:31:33;;;;;;;10.50;7.78;;;16.20;73.90;;;;;;5917855;39;20505;-81
2021/06/10 01:35:40;;;;;;;9.40;8.05;;;17.50;75.70;;;;;;5903203;40;20034;-80
2021/06/10 01:39:43;;;;;;;9.07;8.10;;;16.20;75.30;;;;;;5907747;40;20050;-80
2021/06/10 01:43:48;;;;;;;9.35;8.35;;;16.20;75.40;;;;;;5904777;40;20056;-79
2021/06/10 01:47:51;;;;;;;11.18;8.57;;;16.10;75.50;;;;;;5914892;40;20030;-79
2021/06/10 01:51:57;;;;;;;11.02;8.10;;;16.10;75.60;;;;;;5905897;40;20065;-81
2021/06/10 01:56:00;;;;;;;10.50;8.52;;;16.10;75.70;;;;;;5904133;40;20054;-80
2021/06/10 02:00:08;;;;;;;12.85;9.05;;;15.60;75.80;;;;;;5904483;40;20558;-80
2021/06/10 02:04:12;;;;;;;15.35;9.20;;;16.10;76.00;;;;;;5905206;40;20041;-82
2021/06/10 02:08:16;;;;;;;12.05;8.45;;;16.10;76.00;;;;;;5915046;40;20052;-81
2021/06/10 02:12:18;;;;;;;11.80;8.93;;;16.10;76.10;;;;;;5919500;40;20077;-80
2021/06/10 02:16:21;;;;;;;;;;;16.90;76.80;;;;;;5906256;40;20092;-81
2021/06/10 02:20:23;;;;;;;14.20;8.63;;;15.80;72.10;;;;;;5920611;40;19925;-80
2021/06/10 02:24:25;;;;;;;;;;;15.70;75.50;;;;;;5923234;40;20056;-81
2021/06/10 02:28:27;;;;;;;9.70;8.13;;;17.10;72.60;;;;;;5923692;40;19929;-81
2021/06/10 02:32:29;;;;;;;9.43;7.90;;;15.60;74.80;;;;;;5924089;40;20472;-81
2021/06/10 02:36:31;;;;;;;9.68;8.18;;;15.80;75.50;;;;;;5906221;40;20030;-81
2021/06/10 02:40:42;;;;;;;11.00;8.43;;;15.60;75.80;;;;;;5927323;40;20033;-81
2021/06/10 02:44:49;;;;;;;13.32;8.13;;;15.60;76.40;;;;;;5931733;39;20078;-80
2021/06/10 02:48:54;;;;;;;9.82;8.15;;;15.50;76.70;;;;;;5906671;40;20014;-82
2021/06/10 02:52:58;;;;;;;14.88;10.23;;;15.50;76.80;;;;;;5904887;40;20042;-83
2021/06/10 02:57:02;;;;;;;13.77;10.95;;;15.80;77.20;;;;;;5905814;40;20046;-81
2021/06/10 03:01:05;;;;;;;15.02;11.75;;;15.40;77.30;;;;;;5901713;40;20574;-83
2021/06/10 03:05:08;;;;;;;15.38;13.32;;;16.30;78.60;;;;;;5899825;40;20045;-81
2021/06/10 03:09:13;;;;;;;16.05;13.40;;;15.40;77.60;;;;;;5921662;40;20041;-79
2021/06/10 03:13:17;;;;;;;16.58;13.77;;;15.20;77.70;;;;;;5931169;40;20731;-83
2021/06/10 03:17:19;;;;;;;19.08;13.70;;;15.50;78.10;;;;;;5916732;40;20037;-82
2021/06/10 03:21:21;;;;;;;15.38;13.73;;;15.20;77.80;;;;;;5906648;40;20698;-82
2021/06/10 03:25:25;;;;;;;16.83;14.55;;;15.30;78.10;;;;;;5919374;40;20037;-82
2021/06/10 03:29:27;;;;;;;17.50;14.25;;;14.80;78.20;;;;;;5911126;40;20053;-83
2021/06/10 03:33:29;;;;;;;20.33;15.55;;;15.30;78.70;;;;;;5918637;40;20204;-81
2021/06/10 03:37:31;;;;;;;;;;;14.60;78.20;;;;;;5924388;40;20095;-82
2021/06/10 03:41:33;;;;;;;;;;;16.90;75.20;;;;;;5919655;40;19948;-82
2021/06/10 03:45:35;;;;;;;18.45;14.65;;;15.10;73.10;;;;;;5931267;40;19931;-83
2021/06/10 03:49:38;;;;;;;18.88;14.60;;;15.00;77.20;;;;;;5923622;40;20091;-83
2021/06/10 03:53:44;;;;;;;16.40;12.98;;;15.10;78.00;;;;;;5919364;40;20052;-83
2021/06/10 03:57:46;;;;;;;17.00;11.80;;;15.20;78.60;;;;;;5920422;40;20146;-83
2021/06/10 04:01:48;;;;;;;;;;;15.20;78.70;;;;;;5931198;40;20033;-82
2021/06/10 04:05:50;;;;;;;16.85;10.07;;;15.80;74.20;;;;;;5934787;39;19940;-83
2021/06/10 04:09:52;;;;;;;13.15;10.68;;;15.30;77.70;;;;;;5923451;40;20069;-82
2021/06/10 04:13:54;;;;;;;;;;;17.60;79.50;;;;;;5922619;40;20119;-84
2021/06/10 04:17:56;;;;;;;12.60;9.68;;;15.40;73.60;;;;;;5920686;40;19991;-83
2021/06/10 04:21:58;;;;;;;11.20;9.15;;;16.30;78.00;;;;;;5939896;39;20045;-82
2021/06/10 04:26:00;;;;;;;13.10;8.85;;;16.70;78.60;;;;;;5920629;40;20073;-82
2021/06/10 04:30:09;;;;;;;10.05;8.45;;;15.60;78.00;;;;;;5922795;40;20745;-82
2021/06/10 04:34:11;;;;;;;11.98;9.10;;;15.70;78.50;;;;;;5924699;40;20048;-83
2021/06/10 04:38:14;;;;;;;;;;;17.70;79.60;;;;;;5923505;40;20041;-82
2021/06/10 04:42:16;;;;;;;12.60;9.70;;;15.90;73.60;;;;;;5922924;40;19932;-82
2021/06/10 04:46:18;;;;;;;;;;;17.30;78.50;;;;;;5927787;40;20080;-82
2021/06/10 04:50:20;;;;;;;9.97;7.50;;;16.40;73.30;;;;;;5932094;40;19970;-83
2021/06/10 04:54:22;;;;;;;12.13;7.70;;;16.60;76.40;;;;;;5929893;40;20037;-82
2021/06/10 04:58:24;;;;;;;9.68;7.22;;;17.10;76.60;;;;;;5920911;40;20736;-81
2021/06/10 05:02:26;;;;;;;8.77;6.57;;;17.00;76.00;;;;;;5921547;40;20071;-82
2021/06/10 05:06:29;;;;;;;;;;;17.60;75.80;;;;;;5920109;40;20034;-82
2021/06/10 05:10:30;;;;;;;;;;;18.00;73.20;;;;;;5914204;40;19933;-81
2021/06/10 05:14:32;;;;;;;9.48;6.47;;;17.70;72.20;;;;;;5938751;39;19929;-81
2021/06/10 05:18:34;;;;;;;9.25;6.72;;;18.30;74.70;;;;;;5921132;40;20079;-82
2021/06/10 05:22:39;;;;;;;8.70;6.43;;;17.50;74.80;;;;;;5916573;40;20099;-81
2021/06/10 05:26:42;;;;;;;8.80;6.13;;;18.10;75.00;;;;;;5931622;40;20037;-81
2021/06/10 05:30:43;;;;;;;;;;;18.20;74.40;;;;;;5937251;39;20041;-82
2021/06/10 05:34:45;;;;;;;7.88;5.55;;;18.20;72.30;;;;;;5920869;40;20502;-80
2021/06/10 05:38:47;;;;;;;;;;;19.40;74.60;;;;;;5922344;40;20033;-81
2021/06/10 05:42:49;;;;;;;10.27;5.25;;;18.30;72.90;;;;;;5922177;40;20593;-81
2021/06/10 05:46:51;;;;;;;7.35;5.35;;;17.50;74.30;;;;;;5922594;40;20096;-81
2021/06/10 05:50:54;;;;;;;9.90;5.40;;;18.40;75.40;;;;;;5929821;40;20069;-81
2021/06/10 05:54:57;;;;;;;8.90;4.97;;;18.30;76.30;;;;;;5920900;40;20185;-82
2021/06/10 05:58:59;;;;;;;8.82;5.00;;;19.40;76.70;;;;;;5921402;40;20044;-80
2021/06/10 06:03:03;;;;;;;9.95;4.65;;;18.80;76.20;;;;;;5924622;40;20092;-81
2021/06/10 06:07:06;;;;;;;5.10;3.72;;;18.80;76.30;;;;;;5921045;40;21103;-82
2021/06/10 06:11:07;;;;;;;6.57;4.72;;;18.80;76.20;;;;;;5938974;39;20049;-80
2021/06/10 06:15:09;;;;;;;;;;;18.90;76.00;;;;;;5922594;40;20087;-83
2021/06/10 06:19:13;;;;;;;7.15;5.05;;;19.10;73.80;;;;;;5934430;40;20409;-84
2021/06/10 06:23:15;;;;;;;7.50;5.57;;;19.30;75.20;;;;;;5918996;40;20739;-81
2021/06/10 06:27:18;;;;;;;9.52;5.78;;;19.20;75.30;;;;;;5925860;40;20488;-79
2021/06/10 06:31:20;;;;;;;8.52;5.35;;;20.30;75.60;;;;;;5920818;40;20103;-80
2021/06/10 06:35:22;;;;;;;9.85;6.32;;;19.60;74.50;;;;;;5936320;39;20049;-80
2021/06/10 06:39:24;;;;;;;;;;;19.70;74.60;;;;;;5923549;40;20517;-81
2021/06/10 06:43:30;;;;;;;10.52;6.75;;;19.80;73.30;;;;;;5914210;40;19983;-80
2021/06/10 06:47:35;;;;;;;8.02;5.95;;;19.80;74.30;;;;;;5918832;40;20029;-81
2021/06/10 06:51:37;;;;;;;7.55;5.82;;;21.70;75.70;;;;;;5905098;40;20473;-81
2021/06/10 06:55:39;;;;;;;8.07;5.18;;;20.10;74.50;;;;;;5920831;40;20042;-80
2021/06/10 06:59:41;;;;;;;8.95;6.13;;;20.10;74.10;;;;;;5923071;40;20053;-80
2021/06/10 07:03:43;;;;;;;;;;;20.30;75.00;;;;;;5936470;39;20571;-81
2021/06/10 07:07:46;;;;;;;8.40;6.00;;;20.30;73.60;;;;;;5938576;39;20384;-81
2021/06/10 07:11:48;;;;;;;10.15;6.00;;;20.40;74.90;;;;;;5930831;40;20049;-80
2021/06/10 07:15:50;;;;;;;7.97;5.75;;;20.40;74.20;;;;;;5931836;40;20045;-80
2021/06/10 07:19:54;;;;;;;6.28;5.15;;;21.70;75.40;;;;;;5922233;40;20097;-80
2021/06/10 07:23:56;;;;;;;7.80;5.97;;;20.60;74.80;;;;;;5930614;40;20095;-80
2021/06/10 07:27:58;;;;;;;;;;;20.80;74.40;;;;;;5919682;40;20101;-80
2021/06/10 07:32:00;;;;;;;8.75;6.25;;;20.80;74.20;;;;;;5930834;39;19955;-77
2021/06/10 07:36:02;;;;;;;6.20;5.60;;;20.90;72.90;;;;;;5911729;40;20049;-79
2021/06/10 07:40:05;;;;;;;8.98;5.70;;;21.10;73.70;;;;;;5919894;40;20057;-80
2021/06/10 07:44:07;;;;;;;7.28;5.95;;;21.20;73.20;;;;;;5919773;40;20057;-79
2021/06/10 07:48:09;;;;;;;;;;;21.80;73.20;;;;;;5925635;40;20042;-80
2021/06/10 07:52:10;;;;;;;7.40;5.55;;;21.30;73.20;;;;;;5922618;40;19951;-80
2021/06/10 07:56:12;;;;;;;;;;;21.40;73.30;;;;;;5929750;40;20041;-80
2021/06/10 08:00:15;;;;;;;9.57;7.28;;;21.50;73.60;;;;;;5928557;40;19953;-79
2021/06/10 08:04:17;;;;;;;9.68;6.88;;;21.50;72.60;;;;;;5923232;40;20041;-78
2021/06/10 08:08:19;;;;;;;;;;;21.70;72.80;;;;;;5912756;40;20065;-79
2021/06/10 08:12:22;;;;;;;10.40;6.82;;;21.80;72.90;;;;;;5912426;40;20565;-80
2021/06/10 08:16:24;;;;;;;11.00;7.75;;;21.80;72.90;;;;;;5924456;40;20038;-80
2021/06/10 08:20:27;;;;;;;;;;;22.00;72.30;;;;;;5896065;40;20030;-80
2021/06/10 08:24:29;;;;;;;8.40;7.05;;;22.00;73.00;;;;;;5920112;40;20100;-79
2021/06/10 08:28:32;;;;;;;12.10;7.40;;;22.10;72.20;;;;;;5905239;40;20046;-79
2021/06/10 08:32:34;;;;;;;10.65;7.20;;;22.20;72.80;;;;;;5922285;40;20135;-79
2021/06/10 08:36:36;;;;;;;10.93;7.90;;;22.30;72.40;;;;;;5912664;40;20458;-80
2021/06/10 08:40:39;;;;;;;7.68;6.72;;;22.40;72.30;;;;;;5933531;39;20049;-79
2021/06/10 08:44:43;;;;;;;11.10;7.85;;;23.10;73.80;;;;;;5903979;40;20045;-79
2021/06/10 08:48:49;;;;;;;10.07;7.20;;;22.60;72.20;;;;;;5913237;40;20061;-79
2021/06/10 08:52:51;;;;;;;9.93;7.45;;;22.80;72.40;;;;;;5907483;40;20096;-80
2021/06/10 08:56:53;;;;;;;9.05;7.20;;;24.30;72.40;;;;;;5902113;40;20046;-79
2021/06/10 09:00:57;;;;;;;6.05;4.97;;;23.30;72.00;;;;;;5906193;40;20042;-79
2021/06/10 09:05:11;;;;;;;5.68;4.20;;;23.40;70.30;;;;;;5910531;40;20038;-79
2021/06/10 09:09:13;;;;;;;7.20;4.85;;;23.50;69.50;;;;;;5910636;40;20468;-79
2021/06/10 09:13:15;;;;;;;4.45;3.70;;;23.90;67.50;;;;;;5909622;40;20102;-79
2021/06/10 09:17:30;;;;;;;6.53;4.20;;;23.80;67.80;;;;;;5906395;40;20049;-80
2021/06/10 09:21:34;;;;;;;8.13;3.88;;;24.20;67.90;;;;;;5921331;40;20045;-79
2021/06/10 09:25:37;;;;;;;7.78;4.85;;;24.10;67.90;;;;;;5908053;40;20093;-78
2021/06/10 09:29:45;;;;;;;7.10;4.60;;;24.20;68.40;;;;;;5901942;40;20117;-78
2021/06/10 09:33:46;;;;;;;6.43;4.30;;;24.30;68.00;;;;;;5911800;40;20147;-79
2021/06/10 09:37:49;;;;;;;7.57;4.00;;;24.80;68.10;;;;;;5915456;40;20072;-80
2021/06/10 09:42:08;;;;;;;8.10;4.15;;;24.60;67.40;;;;;;5912130;40;20057;-80
2021/06/10 09:46:10;;;;;;;5.95;3.22;;;24.70;67.70;;;;;;5910534;40;20033;-82
2021/06/10 09:50:18;;;;;;;6.57;3.53;;;24.80;66.30;;;;;;5892219;40;20049;-79
2021/06/10 09:54:38;;;;;;;6.70;3.38;;;25.00;67.00;;;;;;5906756;40;20053;-79
2021/06/10 09:58:42;;;;;;;6.22;3.53;;;25.00;67.50;;;;;;5901301;40;20049;-79
2021/06/10 10:02:49;;;;;;;5.85;3.88;;;24.90;66.50;;;;;;5904999;40;20100;-79
2021/06/10 10:06:53;;;;;;;5.82;3.50;;;24.90;66.00;;;;;;5896694;40;20073;-79
2021/06/10 10:10:57;;;;;;;7.68;4.15;;;26.00;67.80;;;;;;5896191;40;20034;-79
2021/06/10 10:15:00;;;;;;;6.50;5.03;;;25.10;66.80;;;;;;5902143;40;20097;-79
2021/06/10 10:19:03;;;;;;;7.03;4.43;;;25.10;66.70;;;;;;5906932;40;20049;-79
2021/06/10 10:23:06;;;;;;;7.95;4.93;;;25.20;67.60;;;;;;5916868;40;20057;-78
2021/06/10 10:27:11;;;;;;;9.70;5.55;;;25.30;67.40;;;;;;5890094;40;20041;-79
2021/06/10 10:31:13;;;;;;;10.20;5.50;;;25.40;66.90;;;;;;5904415;40;20069;-80
2021/06/10 10:35:21;;;;;;;9.00;4.97;;;25.40;67.40;;;;;;5900104;40;20050;-79
2021/06/10 10:39:32;;;;;;;7.40;4.88;;;25.60;67.00;;;;;;5900831;40;20146;-79
2021/06/10 10:43:35;;;;;;;9.50;5.78;;;25.80;66.80;;;;;;5929282;40;20519;-80
2021/06/10 10:47:57;;;;;;;8.65;6.30;;;25.90;66.80;;;;;;5902301;40;20045;-80
2021/06/10 10:52:37;;;;;;;8.57;5.72;;;26.00;67.80;;;;;;5921600;40;20104;-80
2021/06/10 10:56:41;;;;;;;6.72;5.57;;;26.00;69.00;;;;;;5923231;40;20041;-80
2021/06/10 11:00:56;;;;;;;7.93;5.82;;;26.00;67.30;;;;;;5896009;40;20046;-79
2021/06/10 11:04:59;;;;;;;11.38;7.22;;;26.20;67.10;;;;;;5900078;40;20077;-79
2021/06/10 11:09:13;;;;;;;7.35;5.65;;;26.70;65.80;;;;;;5916892;40;20058;-79
2021/06/10 11:13:28;;;;;;;10.27;5.90;;;26.10;66.40;;;;;;5895433;40;20088;-79
2021/06/10 11:17:42;;;;;;;9.80;6.38;;;25.90;66.60;;;;;;5903846;40;20061;-79
2021/06/10 11:21:45;;;;;;;7.80;5.78;;;25.90;66.90;;;;;;5907416;40;23917;-79
2021/06/10 11:25:52;;;;;;;7.68;5.18;;;26.00;67.10;;;;;;5917150;40;20045;-79
2021/06/10 11:30:09;;;;;;;6.32;3.83;;;26.10;66.60;;;;;;5905967;40;20041;-78
2021/06/10 11:34:31;;;;;;;10.38;6.03;;;26.10;66.10;;;;;;5898347;40;20054;-78
2021/06/10 11:38:33;;;;;;;;;;;26.10;67.00;;;;;;5897362;40;20045;-79
2021/06/10 11:42:43;;;;;;;5.75;4.78;;;26.20;68.80;;;;;;5902159;40;20312;-79
2021/06/10 11:46:45;;;;;;;5.30;3.90;;;26.20;65.90;;;;;;5900973;40;20057;-78
2021/06/10 11:50:49;;;;;;;6.95;3.72;;;26.40;64.10;;;;;;5903746;40;20034;-79
2021/06/10 11:55:02;;;;;;;5.55;3.53;;;26.40;64.60;;;;;;5889427;40;20113;-78
2021/06/10 11:59:19;;;;;;;6.88;5.25;;;26.50;65.40;;;;;;5892565;40;20049;-79
2021/06/10 12:03:21;;;;;;;8.55;4.38;;;26.40;64.40;;;;;;5895291;40;20398;-79
2021/06/10 12:07:23;;;;;;;6.63;4.88;;;26.40;65.30;;;;;;5894455;40;20054;-78
2021/06/10 12:11:25;;;;;;;7.93;5.90;;;26.40;65.10;;;;;;5892386;40;20330;-79
2021/06/10 12:15:31;;;;;;;8.82;6.03;;;26.40;64.90;;;;;;5912378;40;20200;-78
2021/06/10 12:19:34;;;;;;;8.00;5.80;;;26.40;64.90;;;;;;5913726;40;20042;-78
2021/06/10 12:23:41;;;;;;;11.15;6.60;;;26.40;65.00;;;;;;5892266;40;20050;-77
2021/06/10 12:27:43;;;;;;;9.25;6.10;;;26.50;64.00;;;;;;5896921;40;20645;-77
2021/06/10 12:31:44;;;;;;;9.40;6.28;;;26.80;62.60;;;;;;5907294;40;20159;-78
2021/06/10 12:35:49;;;;;;;7.90;4.88;;;26.90;63.20;;;;;;5912323;40;20374;-78
2021/06/10 12:39:51;;;;;;;8.93;5.22;;;26.90;63.60;;;;;;5891626;40;20049;-79
2021/06/10 12:44:05;;;;;;;7.20;4.22;;;26.90;63.10;;;;;;5891820;40;20431;-78
2021/06/10 12:48:20;;;;;;;6.22;3.78;;;26.90;64.70;;;;;;5890538;40;20357;-78
2021/06/10 12:52:25;;;;;;;7.53;4.13;;;27.00;63.70;;;;;;5897011;40;20074;-78
2021/06/10 12:56:34;;;;;;;7.40;5.38;;;27.00;63.50;;;;;;5893627;40;20049;-78
2021/06/10 13:00:37;;;;;;;6.95;4.13;;;26.80;63.20;;;;;;5899922;40;20058;-79
2021/06/10 13:04:47;;;;;;;7.55;3.50;;;26.80;64.20;;;;;;5890052;40;20042;-79
2021/06/10 13:08:49;;;;;;;5.90;3.60;;;26.80;63.40;;;;;;5890777;40;20050;-79
2021/06/10 13:12:53;;;;;;;5.47;3.40;;;26.80;63.50;;;;;;5897378;40;20447;-78
2021/06/10 13:16:55;;;;;;;5.38;3.30;;;26.70;62.70;;;;;;5890225;40;20242;-78
2021/06/10 13:20:59;;;;;;;7.45;4.13;;;26.70;62.90;;;;;;5896392;40;20501;-78
2021/06/10 13:25:10;;;;;;;6.15;3.40;;;26.70;62.50;;;;;;5903918;40;20073;-79
2021/06/10 13:29:13;;;;;;;6.40;4.20;;;26.80;62.60;;;;;;5892988;40;20061;-78
2021/06/10 13:33:21;;;;;;;5.05;3.20;;;26.70;62.40;;;;;;5908066;40;20065;-79
2021/06/10 13:37:24;;;;;;;9.65;3.53;;;26.60;61.80;;;;;;5907562;40;20065;-78
2021/06/10 13:41:29;;;;;;;8.32;4.07;;;26.70;61.70;;;;;;5913914;40;20155;-78
2021/06/10 13:45:32;;;;;;;7.38;3.72;;;26.70;62.20;;;;;;5916492;40;20041;-79
2021/06/10 13:49:34;;;;;;;6.93;4.43;;;26.60;61.20;;;;;;5886613;40;20061;-78
2021/06/10 13:53:36;;;;;;;6.45;3.60;;;26.60;61.20;;;;;;5891186;40;20337;-79
2021/06/10 13:57:38;;;;;;;6.95;3.90;;;26.70;61.30;;;;;;5892727;40;20500;-78
2021/06/10 14:01:41;;;;;;;4.78;3.90;;;26.70;61.60;;;;;;5903631;40;20305;-78
2021/06/10 14:05:42;;;;;;;7.20;3.83;;;26.60;61.30;;;;;;5891234;40;20030;-79
2021/06/10 14:09:44;;;;;;;6.45;3.63;;;26.50;61.60;;;;;;5891284;40;20159;-79
2021/06/10 14:13:46;;;;;;;7.78;4.70;;;26.70;61.70;;;;;;5889639;40;20071;-79
2021/06/10 14:17:49;;;;;;;10.85;5.00;;;26.30;62.00;;;;;;5892644;40;20042;-79
2021/06/10 14:21:52;;;;;;;5.82;3.97;;;26.10;62.20;;;;;;5913112;40;20037;-78
2021/06/10 14:25:54;;;;;;;6.57;4.43;;;26.10;62.10;;;;;;5913478;40;20138;-79
2021/06/10 14:34:19;;;;;;;6.43;5.17;;;26.30;62.70;;;;;;5915777;40;20046;-78
2021/06/10 14:38:21;;;;;;;7.65;5.18;;;26.20;62.80;;;;;;5915215;40;20077;-78
2021/06/10 14:42:24;;;;;;;7.38;4.00;;;26.10;62.50;;;;;;5913195;40;20061;-78
2021/06/10 14:46:26;;;;;;;5.75;4.70;;;26.00;62.70;;;;;;5912312;40;20060;-77
2021/06/10 14:50:47;;;;;;;6.53;3.67;;;26.00;60.40;;;;;;5908186;40;20064;-77
2021/06/10 14:54:49;;;;;;;7.45;4.68;;;25.90;62.20;;;;;;5912589;40;20042;-78
2021/06/10 14:58:50;;;;;;;8.15;4.95;;;25.90;61.80;;;;;;5906037;40;20045;-78
2021/06/10 15:02:53;;;;;;;7.38;4.68;;;25.80;62.30;;;;;;5907732;40;20067;-78
2021/06/10 15:06:55;;;;;;;7.82;5.10;;;25.60;62.20;;;;;;5907099;40;20057;-78
2021/06/10 15:10:57;;;;;;;8.02;4.68;;;25.70;62.30;;;;;;5907274;40;20261;-78
2021/06/10 15:14:59;;;;;;;7.70;4.65;;;25.60;62.30;;;;;;5903749;40;20138;-77
2021/06/10 15:19:01;;;;;;;9.85;5.22;;;25.60;62.30;;;;;;5904901;40;20061;-78
2021/06/10 15:23:03;;;;;;;8.40;4.70;;;25.60;62.80;;;;;;5908938;40;20142;-78
2021/06/10 15:27:06;;;;;;;6.65;3.63;;;25.50;62.40;;;;;;5913475;40;20073;-78
2021/06/10 15:31:08;;;;;;;5.75;3.33;;;25.40;62.60;;;;;;5900543;40;20143;-77
2021/06/10 15:35:10;;;;;;;6.28;3.65;;;25.30;62.30;;;;;;5904571;40;20053;-78
2021/06/10 15:39:12;;;;;;;6.30;2.90;;;25.30;61.40;;;;;;5899237;40;20079;-78
2021/06/10 15:43:14;;;;;;;5.65;3.05;;;25.30;61.80;;;;;;5897980;40;20166;-78
2021/06/10 15:47:16;;;;;;;7.45;5.30;;;25.30;60.90;;;;;;5889703;40;20053;-78
2021/06/10 15:51:18;;;;;;;4.65;3.45;;;25.20;61.50;;;;;;5881118;40;20045;-78
2021/06/10 15:55:23;;;;;;;6.88;4.22;;;25.20;61.50;;;;;;5876989;40;83824;-77
2021/06/10 15:59:25;;;;;;;6.85;5.18;;;25.10;62.00;;;;;;5899836;40;20136;-78
2021/06/10 16:03:27;;;;;;;6.60;5.00;;;25.10;61.90;;;;;;5890248;40;20589;-78
2021/06/10 16:07:29;;;;;;;7.57;4.90;;;25.00;62.00;;;;;;5899943;40;20049;-79
2021/06/10 16:11:34;;;;;;;7.30;4.60;;;25.00;61.60;;;;;;5898226;40;20065;-78
2021/06/10 16:15:36;;;;;;;5.82;4.43;;;24.80;62.50;;;;;;5914608;40;20083;-78
2021/06/10 16:19:38;;;;;;;5.90;4.05;;;24.90;62.00;;;;;;5915926;40;20056;-78
2021/06/10 16:23:41;;;;;;;6.07;4.63;;;24.90;62.80;;;;;;5913758;40;20049;-78
2021/06/10 16:27:45;;;;;;;6.68;4.05;;;24.80;62.20;;;;;;5906113;40;20150;-78
2021/06/10 16:31:47;;;;;;;6.20;4.10;;;24.80;62.70;;;;;;5908082;40;20355;-78
2021/06/10 16:35:49;;;;;;;5.85;4.07;;;24.70;62.70;;;;;;5908912;40;20061;-78
2021/06/10 16:39:51;;;;;;;7.22;3.42;;;24.60;62.70;;;;;;5906732;40;20068;-78
2021/06/10 16:43:55;;;;;;;4.65;2.92;;;24.70;61.80;;;;;;5905419;40;20070;-78
2021/06/10 16:47:56;;;;;;;6.43;3.28;;;25.30;62.10;;;;;;5901126;40;20065;-77
2021/06/10 16:51:58;;;;;;;4.78;2.22;;;24.50;61.20;;;;;;5906508;40;20128;-77
2021/06/10 16:56:02;;;;;;;4.57;2.42;;;24.50;61.50;;;;;;5906863;40;20120;-78
2021/06/10 17:00:09;;;;;;;5.38;2.65;;;24.40;61.10;;;;;;5905862;40;20038;-78
2021/06/10 17:04:11;;;;;;;5.05;2.45;;;24.40;61.80;;;;;;5908465;40;20072;-78
2021/06/10 17:08:13;;;;;;;4.55;2.67;;;24.40;61.30;;;;;;5907808;40;20055;-77
2021/06/10 17:12:15;;;;;;;4.95;2.20;;;24.30;61.50;;;;;;5908573;40;20041;-78
2021/06/10 17:16:17;;;;;;;4.05;2.13;;;24.30;61.50;;;;;;5907295;40;20061;-78
2021/06/10 17:20:23;;;;;;;3.30;2.00;;;24.10;61.60;;;;;;5906453;40;20061;-79
2021/06/10 17:24:26;;;;;;;4.15;2.00;;;24.20;61.60;;;;;;5915975;40;20057;-78
2021/06/10 17:28:28;;;;;;;7.05;2.55;;;25.00;62.30;;;;;;5900190;40;20074;-77
2021/06/10 17:32:30;;;;;;;6.60;2.63;;;25.20;62.50;;;;;;5906980;40;20045;-78
2021/06/10 17:36:32;;;;;;;7.88;2.53;;;24.00;62.00;;;;;;5907781;40;20045;-78
2021/06/10 17:40:34;;;;;;;6.78;2.90;;;24.00;62.90;;;;;;5923280;40;20053;-78
2021/06/10 17:44:37;;;;;;;5.93;3.33;;;23.90;63.80;;;;;;5905060;40;20041;-77
2021/06/10 17:48:39;;;;;;;5.90;3.40;;;23.80;64.10;;;;;;5905719;40;20452;-78
2021/06/10 17:52:41;;;;;;;5.45;3.47;;;23.70;64.90;;;;;;5913585;40;20065;-78
2021/06/10 17:56:43;;;;;;;5.22;2.80;;;23.60;64.00;;;;;;5901589;40;20053;-78
2021/06/10 18:00:48;;;;;;;5.53;2.50;;;23.50;64.30;;;;;;5905787;40;20052;-77
2021/06/10 18:04:51;;;;;;;4.68;2.10;;;23.50;64.20;;;;;;5905011;40;20033;-79
2021/06/10 18:08:52;;;;;;;5.88;2.78;;;23.40;64.70;;;;;;5905636;40;20041;-78
2021/06/10 18:12:56;;;;;;;6.63;2.53;;;23.40;65.00;;;;;;5907811;40;20658;-78
2021/06/10 18:16:58;;;;;;;7.80;2.88;;;23.30;65.80;;;;;;5905880;40;20147;-78
2021/06/10 18:21:00;;;;;;;3.67;2.65;;;23.20;65.80;;;;;;5903985;40;20225;-78
2021/06/10 18:25:04;;;;;;;4.60;2.70;;;23.20;66.50;;;;;;5905378;40;20729;-77
2021/06/10 18:29:05;;;;;;;6.95;2.40;;;23.10;66.80;;;;;;5905402;40;20062;-77
2021/06/10 18:33:08;;;;;;;4.18;2.53;;;23.00;66.70;;;;;;5923740;40;20057;-78
2021/06/10 18:37:10;;;;;;;4.10;2.28;;;22.90;66.90;;;;;;5894641;40;20066;-78
2021/06/10 18:41:12;;;;;;;5.15;2.53;;;22.80;66.80;;;;;;5900014;40;20061;-77
2021/06/10 18:45:16;;;;;;;6.25;2.53;;;22.70;66.70;;;;;;5897345;40;20069;-78
2021/06/10 18:49:17;;;;;;;6.32;2.50;;;22.70;67.10;;;;;;5906549;40;20054;-78
2021/06/10 18:53:20;;;;;;;5.32;2.42;;;22.70;67.10;;;;;;5897962;40;20114;-78
2021/06/10 18:57:22;;;;;;;10.02;2.42;;;22.80;67.30;;;;;;5889430;40;20069;-78
2021/06/10 19:01:24;;;;;;;5.57;2.15;;;22.50;67.00;;;;;;5888975;40;20060;-78
2021/06/10 19:05:26;;;;;;;4.20;2.40;;;22.50;67.20;;;;;;5891219;40;20045;-78
2021/06/10 19:09:28;;;;;;;6.75;2.63;;;22.40;67.00;;;;;;5894844;40;20418;-78
2021/06/10 19:13:30;;;;;;;3.70;2.55;;;23.00;67.60;;;;;;5882643;40;20094;-78
2021/06/10 19:17:34;;;;;;;5.65;3.28;;;22.20;67.30;;;;;;5906901;40;20056;-78
2021/06/10 19:21:35;;;;;;;6.30;2.60;;;22.10;67.70;;;;;;5911999;40;20057;-79
2021/06/10 19:25:38;;;;;;;3.85;2.45;;;22.10;67.90;;;;;;5910918;40;20140;-79
2021/06/10 19:29:40;;;;;;;6.75;3.10;;;22.00;68.10;;;;;;5924226;40;20053;-78
2021/06/10 19:38:13;;;;;;;5.38;3.10;;;21.80;66.60;;;;;;5912798;40;19988;-78
2021/06/10 19:42:15;;;;;;;7.05;3.22;;;21.80;68.60;;;;;;5910065;40;20057;-78
2021/06/10 19:46:19;;;;;;;;;;;22.10;69.10;;;;;;5910772;40;20073;-78
2021/06/10 19:50:21;;;;;;;5.85;2.90;;;21.60;66.60;;;;;;5907744;40;19933;-78
2021/06/10 19:54:23;;;;;;;4.43;3.08;;;21.60;69.10;;;;;;5901365;40;20323;-78
2021/06/10 19:58:26;;;;;;;6.28;2.90;;;22.10;69.80;;;;;;5912897;40;20065;-78
2021/06/10 20:02:28;;;;;;;5.18;3.40;;;21.50;69.70;;;;;;5907167;40;20050;-78
2021/06/10 20:06:30;;;;;;;4.95;3.38;;;21.40;69.80;;;;;;5908673;40;20082;-78
2021/06/10 20:10:31;;;;;;;;;;;21.30;70.00;;;;;;5909997;40;20074;-78
2021/06/10 20:14:38;;;;;;;5.03;3.10;;;21.40;67.70;;;;;;5918116;40;19933;-78
2021/06/10 20:18:40;;;;;;;6.72;4.10;;;21.10;70.10;;;;;;5909850;40;20101;-79
2021/06/10 20:22:41;;;;;;;;;;;21.10;70.40;;;;;;5909676;40;20069;-80
2021/06/10 20:31:15;;;;;;;6.80;4.60;;;20.90;70.20;;;;;;5906660;40;20057;-78
2021/06/10 20:35:17;;;;;;;7.50;4.63;;;20.90;70.50;;;;;;5911726;40;20057;-79
2021/06/10 20:39:19;;;;;;;9.00;4.47;;;20.80;70.90;;;;;;5903805;40;20543;-78
2021/06/10 20:43:21;;;;;;;7.10;4.28;;;20.70;71.20;;;;;;5896811;40;20104;-78
2021/06/10 20:47:23;;;;;;;6.57;4.50;;;20.60;71.40;;;;;;5895680;40;20049;-78
2021/06/10 20:51:25;;;;;;;7.10;4.63;;;20.50;71.80;;;;;;5895143;40;20104;-79
2021/06/10 20:55:27;;;;;;;;;;;20.40;71.90;;;;;;5896511;40;20135;-78
2021/06/10 20:59:30;;;;;;;7.93;5.60;;;20.20;69.50;;;;;;5897876;40;19937;-78
2021/06/10 21:03:33;;;;;;;8.27;5.97;;;20.10;71.50;;;;;;5894740;40;20058;-78
2021/06/10 21:07:35;;;;;;;9.48;6.85;;;20.00;72.10;;;;;;5895806;40;20350;-79
2021/06/10 21:11:37;;;;;;;8.23;6.60;;;20.00;72.30;;;;;;5896443;40;20262;-79
2021/06/10 21:15:40;;;;;;;10.27;6.25;;;20.00;72.40;;;;;;5906195;40;20056;-78
2021/06/10 21:19:42;;;;;;;10.45;6.70;;;18.60;71.70;;;;;;5903758;40;20052;-80
2021/06/10 21:23:44;;;;;;;8.65;6.90;;;20.00;72.40;;;;;;5902366;40;20491;-80
2021/06/10 21:27:46;;;;;;;;;;;19.80;72.50;;;;;;5925927;40;20885;-79
2021/06/10 21:31:50;;;;;;;9.60;7.18;;;19.70;70.20;;;;;;5914036;40;19937;-79